sensor_id;sensor_type;location;lat;lon;timestamp;pressure;altitude;pressure_sealevel;temperature;humidity
65905;BME280;56275;49.802;24.020;2022-10-16T00:01:29;97907.06;;;23.33;51.08
65905;BME280;56275;49.802;24.020;2022-10-16T00:04:17;97911.50;;;23.32;51.23
65905;BME280;56275;49.802;24.020;2022-10-16T00:07:02;97912.38;;;23.33;50.96
65905;BME280;56275;49.802;24.020;2022-10-16T00:09:54;97910.63;;;23.32;51.17
65905;BME280;56275;49.802;24.020;2022-10-16T00:12:39;97909.72;;;23.33;51.18
65905;BME280;56275;49.802;24.020;2022-10-16T00:15:28;97908.88;;;23.31;51.33
65905;BME280;56275;49.802;24.020;2022-10-16T00:18:13;97911.50;;;23.32;51.23
65905;BME280;56275;49.802;24.020;2022-10-16T00:21:09;97911.50;;;23.32;51.07
65905;BME280;56275;49.802;24.020;2022-10-16T00:23:59;97905.31;;;23.32;51.07
65905;BME280;56275;49.802;24.020;2022-10-16T00:26:51;97910.66;;;23.29;51.14
65905;BME280;56275;49.802;24.020;2022-10-16T00:29:36;97912.41;;;23.30;51.19
65905;BME280;56275;49.802;24.020;2022-10-16T00:32:21;97912.41;;;23.30;51.00
65905;BME280;56275;49.802;24.020;2022-10-16T00:35:06;97915.06;;;23.30;51.30
65905;BME280;56275;49.802;24.020;2022-10-16T00:37:52;97907.09;;;23.30;50.92
65905;BME280;56275;49.802;24.020;2022-10-16T00:40:38;97910.66;;;23.29;51.24
65905;BME280;56275;49.802;24.020;2022-10-16T00:46:39;97910.66;;;23.29;51.29
65905;BME280;56275;49.802;24.020;2022-10-16T00:49:25;97914.19;;;23.29;51.15
65905;BME280;56275;49.802;24.020;2022-10-16T00:52:14;97916.88;;;23.28;50.87
65905;BME280;56275;49.802;24.020;2022-10-16T00:55:03;97916.00;;;23.27;51.05
65905;BME280;56275;49.802;24.020;2022-10-16T00:57:49;97916.88;;;23.28;51.15
65905;BME280;56275;49.802;24.020;2022-10-16T01:00:41;97917.78;;;23.27;50.98
65905;BME280;56275;49.802;24.020;2022-10-16T01:03:33;97923.09;;;23.27;51.11
65905;BME280;56275;49.802;24.020;2022-10-16T01:06:54;97923.13;;;23.25;51.13
65905;BME280;56275;49.802;24.020;2022-10-16T01:12:40;97918.69;;;23.26;50.99
65905;BME280;56275;49.802;24.020;2022-10-16T01:18:54;97925.81;;;23.24;51.23
65905;BME280;56275;49.802;24.020;2022-10-16T01:21:44;97929.31;;;23.24;50.95
65905;BME280;56275;49.802;24.020;2022-10-16T01:24:48;97928.44;;;23.24;50.83
65905;BME280;56275;49.802;24.020;2022-10-16T01:27:36;97925.81;;;23.24;51.17
65905;BME280;56275;49.802;24.020;2022-10-16T01:30:28;97930.22;;;23.22;50.85
65905;BME280;56275;49.802;24.020;2022-10-16T01:33:24;97937.28;;;23.23;51.04
65905;BME280;56275;49.802;24.020;2022-10-16T01:36:23;97939.06;;;23.22;51.02
65905;BME280;56275;49.802;24.020;2022-10-16T01:39:14;97933.78;;;23.21;50.74
65905;BME280;56275;49.802;24.020;2022-10-16T01:42:06;97932.91;;;23.20;50.86
65905;BME280;56275;49.802;24.020;2022-10-16T01:45:00;97940.88;;;23.20;50.91
65905;BME280;56275;49.802;24.020;2022-10-16T01:47:47;97933.81;;;23.19;50.95
65905;BME280;56275;49.802;24.020;2022-10-16T01:50:40;97941.75;;;23.21;50.92
65905;BME280;56275;49.802;24.020;2022-10-16T01:53:33;97941.78;;;23.19;50.80
65905;BME280;56275;49.802;24.020;2022-10-16T01:56:19;97944.44;;;23.19;50.85
65905;BME280;56275;49.802;24.020;2022-10-16T01:59:15;97952.38;;;23.19;50.89
65905;BME280;56275;49.802;24.020;2022-10-16T02:02:06;97955.00;;;23.21;50.99
65905;BME280;56275;49.802;24.020;2022-10-16T02:05:05;97963.00;;;23.19;50.86
65905;BME280;56275;49.802;24.020;2022-10-16T02:08:13;97958.56;;;23.20;50.84
65905;BME280;56275;49.802;24.020;2022-10-16T02:11:07;97955.03;;;23.19;50.80
65905;BME280;56275;49.802;24.020;2022-10-16T02:14:02;97960.38;;;23.18;50.46
65905;BME280;56275;49.802;24.020;2022-10-16T02:16:54;97961.25;;;23.18;50.81
65905;BME280;56275;49.802;24.020;2022-10-16T02:19:39;97968.31;;;23.18;50.78
65905;BME280;56275;49.802;24.020;2022-10-16T02:22:38;97970.97;;;23.18;50.41
65905;BME280;56275;49.802;24.020;2022-10-16T02:25:35;97966.53;;;23.16;50.65
65905;BME280;56275;49.802;24.020;2022-10-16T02:28:59;97973.66;;;23.14;50.70
65905;BME280;56275;49.802;24.020;2022-10-16T02:31:50;97969.19;;;23.16;50.86
65905;BME280;56275;49.802;24.020;2022-10-16T02:34:38;97974.53;;;23.15;50.65
65905;BME280;56275;49.802;24.020;2022-10-16T02:37:25;97970.13;;;23.14;50.62
65905;BME280;56275;49.802;24.020;2022-10-16T02:40:20;97979.84;;;23.15;50.69
65905;BME280;56275;49.802;24.020;2022-10-16T02:43:16;97978.09;;;23.14;50.47
65905;BME280;56275;49.802;24.020;2022-10-16T02:46:11;97981.59;;;23.14;50.68
65905;BME280;56275;49.802;24.020;2022-10-16T02:49:05;97984.25;;;23.14;50.50
65905;BME280;56275;49.802;24.020;2022-10-16T02:51:50;97985.13;;;23.15;50.79
65905;BME280;56275;49.802;24.020;2022-10-16T02:54:35;97989.56;;;23.14;50.48
65905;BME280;56275;49.802;24.020;2022-10-16T02:57:26;97977.22;;;23.13;50.57
65905;BME280;56275;49.802;24.020;2022-10-16T03:00:21;97980.75;;;23.14;50.43
65905;BME280;56275;49.802;24.020;2022-10-16T03:03:06;97978.09;;;23.14;50.72
65905;BME280;56275;49.802;24.020;2022-10-16T03:05:53;97971.91;;;23.13;50.62
65905;BME280;56275;49.802;24.020;2022-10-16T03:08:38;97976.34;;;23.13;50.38
65905;BME280;56275;49.802;24.020;2022-10-16T03:11:29;97977.22;;;23.13;50.45
65905;BME280;56275;49.802;24.020;2022-10-16T03:14:24;97976.38;;;23.11;50.50
65905;BME280;56275;49.802;24.020;2022-10-16T03:17:18;97977.25;;;23.12;50.65
65905;BME280;56275;49.802;24.020;2022-10-16T03:20:16;97974.59;;;23.12;50.53
65905;BME280;56275;49.802;24.020;2022-10-16T03:23:00;97975.50;;;23.11;50.52
65905;BME280;56275;49.802;24.020;2022-10-16T03:25:46;97978.16;;;23.09;50.43
65905;BME280;56275;49.802;24.020;2022-10-16T03:28:38;97973.75;;;23.10;50.38
65905;BME280;56275;49.802;24.020;2022-10-16T03:31:30;97971.97;;;23.09;50.31
65905;BME280;56275;49.802;24.020;2022-10-16T03:34:24;97971.97;;;23.09;50.37
65905;BME280;56275;49.802;24.020;2022-10-16T03:37:16;97974.63;;;23.09;50.49
65905;BME280;56275;49.802;24.020;2022-10-16T03:40:04;97978.16;;;23.09;50.25
65905;BME280;56275;49.802;24.020;2022-10-16T03:42:50;97971.97;;;23.09;50.20
65905;BME280;56275;49.802;24.020;2022-10-16T03:45:35;97974.63;;;23.09;50.22
65905;BME280;56275;49.802;24.020;2022-10-16T03:48:30;97973.75;;;23.08;50.50
65905;BME280;56275;49.802;24.020;2022-10-16T03:51:21;97976.41;;;23.08;50.45
65905;BME280;56275;49.802;24.020;2022-10-16T03:54:09;97990.53;;;23.09;50.28
65905;BME280;56275;49.802;24.020;2022-10-16T03:56:54;97987.88;;;23.09;50.20
65905;BME280;56275;49.802;24.020;2022-10-16T03:59:39;97985.25;;;23.07;50.44
65905;BME280;56275;49.802;24.020;2022-10-16T04:02:32;97985.25;;;23.07;50.20
65905;BME280;56275;49.802;24.020;2022-10-16T04:05:23;97999.44;;;23.06;50.22
65905;BME280;56275;49.802;24.020;2022-10-16T04:08:15;97996.78;;;23.06;50.26
65905;BME280;56275;49.802;24.020;2022-10-16T04:11:03;97995.00;;;23.07;50.26
65905;BME280;56275;49.802;24.020;2022-10-16T04:13:48;97994.13;;;23.06;49.99
65905;BME280;56275;49.802;24.020;2022-10-16T04:16:36;98002.06;;;23.06;50.23
65905;BME280;56275;49.802;24.020;2022-10-16T04:19:21;98000.31;;;23.05;50.09
65905;BME280;56275;49.802;24.020;2022-10-16T04:22:21;98009.16;;;23.06;49.94
65905;BME280;56275;49.802;24.020;2022-10-16T04:25:13;98002.09;;;23.05;50.20
65905;BME280;56275;49.802;24.020;2022-10-16T04:27:58;97994.16;;;23.05;49.88
65905;BME280;56275;49.802;24.020;2022-10-16T04:30:43;98006.50;;;23.06;49.93
65905;BME280;56275;49.802;24.020;2022-10-16T04:33:29;98000.31;;;23.05;49.91
65905;BME280;56275;49.802;24.020;2022-10-16T04:36:14;98001.19;;;23.06;50.23
65905;BME280;56275;49.802;24.020;2022-10-16T04:39:05;98002.97;;;23.05;50.04
65905;BME280;56275;49.802;24.020;2022-10-16T04:41:57;98000.31;;;23.05;50.10
65905;BME280;56275;49.802;24.020;2022-10-16T04:44:48;97996.81;;;23.05;49.95
65905;BME280;56275;49.802;24.020;2022-10-16T04:47:33;97997.72;;;23.04;50.18
65905;BME280;56275;49.802;24.020;2022-10-16T04:50:18;97997.72;;;23.04;49.72
65905;BME280;56275;49.802;24.020;2022-10-16T04:53:20;98000.38;;;23.04;49.90
65905;BME280;56275;49.802;24.020;2022-10-16T04:56:11;98002.13;;;23.03;49.94
65905;BME280;56275;49.802;24.020;2022-10-16T04:59:05;98008.31;;;23.04;49.83
65905;BME280;56275;49.802;24.020;2022-10-16T05:01:50;98016.25;;;23.04;49.82
65905;BME280;56275;49.802;24.020;2022-10-16T05:04:35;98014.47;;;23.03;49.96
65905;BME280;56275;49.802;24.020;2022-10-16T05:07:30;98018.03;;;23.02;50.02
65905;BME280;56275;49.802;24.020;2022-10-16T05:10:22;98012.75;;;23.02;49.77
65905;BME280;56275;49.802;24.020;2022-10-16T05:13:14;98013.63;;;23.02;49.96
65905;BME280;56275;49.802;24.020;2022-10-16T05:16:04;98018.03;;;23.02;49.94
65905;BME280;56275;49.802;24.020;2022-10-16T05:18:55;98029.50;;;23.02;49.83
65905;BME280;56275;49.802;24.020;2022-10-16T05:21:47;98027.72;;;23.03;50.05
65905;BME280;56275;49.802;24.020;2022-10-16T05:24:35;98037.47;;;23.04;50.19
65905;BME280;56275;49.802;24.020;2022-10-16T05:27:29;98049.78;;;23.06;49.94
65905;BME280;56275;49.802;24.020;2022-10-16T05:30:18;98044.47;;;23.06;49.92
65905;BME280;56275;49.802;24.020;2022-10-16T05:33:04;98056.81;;;23.07;49.79
65905;BME280;56275;49.802;24.020;2022-10-16T05:35:49;98056.81;;;23.07;49.75
65905;BME280;56275;49.802;24.020;2022-10-16T05:38:41;98065.66;;;23.08;50.00
65905;BME280;56275;49.802;24.020;2022-10-16T05:41:33;98063.03;;;23.06;49.98
65905;BME280;56275;49.802;24.020;2022-10-16T05:44:28;98078.00;;;23.09;49.83
65905;BME280;56275;49.802;24.020;2022-10-16T05:47:23;98081.56;;;23.08;49.75
65905;BME280;56275;49.802;24.020;2022-10-16T05:50:09;98075.38;;;23.07;49.73
65905;BME280;56275;49.802;24.020;2022-10-16T05:52:54;98083.34;;;23.06;49.64
65905;BME280;56275;49.802;24.020;2022-10-16T05:55:42;98086.84;;;23.08;49.79
65905;BME280;56275;49.802;24.020;2022-10-16T05:58:35;98090.41;;;23.07;49.90
65905;BME280;56275;49.802;24.020;2022-10-16T06:01:27;98094.84;;;23.06;49.98
65905;BME280;56275;49.802;24.020;2022-10-16T06:04:18;98097.44;;;23.08;49.81
65905;BME280;56275;49.802;24.020;2022-10-16T06:07:03;98091.28;;;23.07;49.99
65905;BME280;56275;49.802;24.020;2022-10-16T06:09:52;98098.31;;;23.08;49.90
65905;BME280;56275;49.802;24.020;2022-10-16T06:12:44;98093.94;;;23.07;49.85
65905;BME280;56275;49.802;24.020;2022-10-16T06:15:35;98107.19;;;23.07;49.80
65905;BME280;56275;49.802;24.020;2022-10-16T06:18:21;98101.88;;;23.07;49.71
65905;BME280;56275;49.802;24.020;2022-10-16T06:21:13;98089.50;;;23.08;50.09
65905;BME280;56275;49.802;24.020;2022-10-16T06:23:59;98101.84;;;23.09;50.07
65905;BME280;56275;49.802;24.020;2022-10-16T06:26:50;98098.31;;;23.08;49.69
65905;BME280;56275;49.802;24.020;2022-10-16T06:29:38;98102.75;;;23.08;50.00
65905;BME280;56275;49.802;24.020;2022-10-16T06:32:23;98108.06;;;23.08;49.86
65905;BME280;56275;49.802;24.020;2022-10-16T06:35:18;98100.97;;;23.08;49.75
65905;BME280;56275;49.802;24.020;2022-10-16T06:38:09;98100.06;;;23.09;49.56
65905;BME280;56275;49.802;24.020;2022-10-16T06:40:57;98107.16;;;23.10;49.72
65905;BME280;56275;49.802;24.020;2022-10-16T06:43:46;98108.91;;;23.11;49.78
65905;BME280;56275;49.802;24.020;2022-10-16T06:46:32;98121.28;;;23.11;49.76
65905;BME280;56275;49.802;24.020;2022-10-16T06:49:23;98116.84;;;23.11;49.78
65905;BME280;56275;49.802;24.020;2022-10-16T06:52:15;98119.47;;;23.13;49.87
65905;BME280;56275;49.802;24.020;2022-10-16T06:55:06;98117.72;;;23.12;50.07
65905;BME280;56275;49.802;24.020;2022-10-16T06:57:58;98121.25;;;23.12;50.00
65905;BME280;56275;49.802;24.020;2022-10-16T07:00:54;98117.72;;;23.12;49.85
65905;BME280;56275;49.802;24.020;2022-10-16T07:03:47;98118.59;;;23.12;49.74
65905;BME280;56275;49.802;24.020;2022-10-16T07:06:41;98123.91;;;23.12;49.76
65905;BME280;56275;49.802;24.020;2022-10-16T07:09:36;98126.56;;;23.12;49.91
65905;BME280;56275;49.802;24.020;2022-10-16T07:12:27;98126.53;;;23.14;49.75
65905;BME280;56275;49.802;24.020;2022-10-16T07:15:19;98126.63;;;23.06;48.87
65905;BME280;56275;49.802;24.020;2022-10-16T07:18:10;98136.50;;;22.97;48.30
65905;BME280;56275;49.802;24.020;2022-10-16T07:21:12;98131.31;;;22.87;48.32
65905;BME280;56275;49.802;24.020;2022-10-16T07:24:07;98132.25;;;22.80;48.44
65905;BME280;56275;49.802;24.020;2022-10-16T07:27:01;98132.28;;;22.79;49.06
65905;BME280;56275;49.802;24.020;2022-10-16T07:29:52;98149.03;;;22.81;48.37
65905;BME280;56275;49.802;24.020;2022-10-16T07:32:44;98145.50;;;22.80;48.27
65905;BME280;56275;49.802;24.020;2022-10-16T07:35:36;98153.47;;;22.79;47.95
65905;BME280;56275;49.802;24.020;2022-10-16T07:38:52;98148.22;;;22.77;48.60
65905;BME280;56275;49.802;24.020;2022-10-16T07:41:47;98152.59;;;22.78;47.76
65905;BME280;56275;49.802;24.020;2022-10-16T07:44:45;98153.47;;;22.79;47.83
65905;BME280;56275;49.802;24.020;2022-10-16T07:47:38;98163.19;;;22.80;47.68
65905;BME280;56275;49.802;24.020;2022-10-16T07:50:30;98162.28;;;22.81;47.42
65905;BME280;56275;49.802;24.020;2022-10-16T07:53:21;98167.59;;;22.79;47.27
65905;BME280;56275;49.802;24.020;2022-10-16T07:56:13;98164.97;;;22.78;47.28
65905;BME280;56275;49.802;24.020;2022-10-16T07:58:58;98161.47;;;22.77;46.87
65905;BME280;56275;49.802;24.020;2022-10-16T08:01:46;98170.31;;;22.76;47.25
65905;BME280;56275;49.802;24.020;2022-10-16T08:04:37;98167.66;;;22.75;46.67
65905;BME280;56275;49.802;24.020;2022-10-16T08:07:34;98170.28;;;22.75;46.57
65905;BME280;56275;49.802;24.020;2022-10-16T08:10:27;98169.44;;;22.74;46.72
65905;BME280;56275;49.802;24.020;2022-10-16T08:13:19;98176.50;;;22.74;46.47
65905;BME280;56275;49.802;24.020;2022-10-16T08:16:11;98176.50;;;22.74;46.38
65905;BME280;56275;49.802;24.020;2022-10-16T08:19:03;98187.09;;;22.74;46.33
65905;BME280;56275;49.802;24.020;2022-10-16T08:21:55;98181.78;;;22.74;46.08
65905;BME280;56275;49.802;24.020;2022-10-16T08:24:46;98179.13;;;22.75;46.25
65905;BME280;56275;49.802;24.020;2022-10-16T08:27:37;98182.66;;;22.77;46.33
65905;BME280;56275;49.802;24.020;2022-10-16T08:30:31;98187.94;;;22.79;46.38
65905;BME280;56275;49.802;24.020;2022-10-16T08:33:22;98184.34;;;22.81;46.52
65905;BME280;56275;49.802;24.020;2022-10-16T08:36:16;98181.69;;;22.84;46.47
65905;BME280;56275;49.802;24.020;2022-10-16T08:39:07;98178.09;;;22.88;46.79
65905;BME280;56275;49.802;24.020;2022-10-16T08:42:43;98188.63;;;22.95;46.80
65905;BME280;56275;49.802;24.020;2022-10-16T08:48:46;98181.44;;;23.03;46.90
65905;BME280;56275;49.802;24.020;2022-10-16T08:51:41;98184.94;;;23.06;47.07
65905;BME280;56275;49.802;24.020;2022-10-16T08:54:36;98175.16;;;23.11;47.05
65905;BME280;56275;49.802;24.020;2022-10-16T08:57:31;98174.22;;;23.17;47.30
65905;BME280;56275;49.802;24.020;2022-10-16T09:00:23;98168.81;;;23.22;47.10
65905;BME280;56275;49.802;24.020;2022-10-16T09:13:16;98171.34;;;23.31;47.07
65905;BME280;56275;49.802;24.020;2022-10-16T09:19:31;98174.84;;;23.33;47.23
65905;BME280;56275;49.802;24.020;2022-10-16T09:22:29;98171.28;;;23.34;47.32
65905;BME280;56275;49.802;24.020;2022-10-16T09:25:23;98184.53;;;23.35;47.52
65905;BME280;56275;49.802;24.020;2022-10-16T09:28:16;98175.66;;;23.36;47.21
65905;BME280;56275;49.802;24.020;2022-10-16T09:31:19;98178.31;;;23.36;47.56
65905;BME280;56275;49.802;24.020;2022-10-16T09:34:35;98176.53;;;23.38;47.55
65905;BME280;56275;49.802;24.020;2022-10-16T09:37:29;98173.00;;;23.36;47.68
65905;BME280;56275;49.802;24.020;2022-10-16T09:40:29;98171.25;;;23.38;47.56
65905;BME280;56275;49.802;24.020;2022-10-16T09:49:26;98174.75;;;23.39;47.60
65905;BME280;56275;49.802;24.020;2022-10-16T09:52:19;98175.63;;;23.39;47.50
65905;BME280;56275;49.802;24.020;2022-10-16T09:55:16;98165.06;;;23.38;47.59
65905;BME280;56275;49.802;24.020;2022-10-16T09:58:16;98173.00;;;23.38;47.66
65905;BME280;56275;49.802;24.020;2022-10-16T10:01:14;98171.25;;;23.38;47.72
65905;BME280;56275;49.802;24.020;2022-10-16T10:04:13;98163.28;;;23.38;47.57
65905;BME280;56275;49.802;24.020;2022-10-16T10:07:05;98175.59;;;23.41;47.66
65905;BME280;56275;49.802;24.020;2022-10-16T10:09:58;98164.13;;;23.40;47.71
65905;BME280;56275;49.802;24.020;2022-10-16T10:12:49;98170.31;;;23.41;47.60
65905;BME280;56275;49.802;24.020;2022-10-16T10:15:42;98163.22;;;23.41;47.77
65905;BME280;56275;49.802;24.020;2022-10-16T10:18:40;98165.88;;;23.41;47.59
65905;BME280;56275;49.802;24.020;2022-10-16T10:21:34;98164.97;;;23.42;47.69
65905;BME280;56275;49.802;24.020;2022-10-16T10:24:28;98164.97;;;23.44;47.79
